Time;durP1;ratioP1;P1;durP2;ratioP2;P2;SDS_P1;SDS_P2;PMS_P1;PMS_P2;Temp;Humidity;BMP_temperature;BMP_pressure;BME280_temperature;BME280_humidity;BME280_pressure;Samples;Min_cycle;Max_cycle;Signal;HPM_P1;HPM_P2
2022/09/05 00:08:53;;;;;;;9.23;4.80;;;;;;;15.72;100.00;100702.47;20831430;28;20536;-67
2022/09/05 00:18:55;;;;;;;8.25;4.80;;;;;;;15.64;100.00;100708.81;20831434;28;20474;-68
2022/09/05 00:29:16;;;;;;;9.18;4.57;;;;;;;15.58;100.00;100711.63;20830293;28;20045;-68
2022/09/05 00:39:37;;;;;;;7.97;5.15;;;;;;;15.52;100.00;100709.19;20829369;28;20457;-68
2022/09/05 00:49:39;;;;;;;7.43;4.88;;;;;;;15.49;100.00;100696.09;20829589;28;20449;-68
2022/09/05 00:59:40;;;;;;;8.15;5.00;;;;;;;15.33;100.00;100693.06;20826567;28;20049;-68
2022/09/05 01:09:51;;;;;;;11.43;6.15;;;;;;;15.33;100.00;100693.06;20825880;28;20050;-68
2022/09/05 01:19:52;;;;;;;9.25;5.57;;;;;;;15.40;100.00;100688.44;20826438;28;20490;-68
2022/09/05 01:29:53;;;;;;;10.05;5.45;;;;;;;15.24;100.00;100692.47;20825766;28;20077;-68
2022/09/05 01:39:56;;;;;;;12.40;6.65;;;;;;;15.09;100.00;100697.31;20824753;28;20065;-68
2022/09/05 01:50:15;;;;;;;7.32;5.22;;;;;;;15.02;100.00;100686.97;20824755;28;20141;-68
2022/09/05 02:00:17;;;;;;;9.00;5.70;;;;;;;14.84;100.00;100683.09;20822624;28;20050;-68
2022/09/05 02:10:18;;;;;;;8.13;5.60;;;;;;;14.84;100.00;100685.72;20822397;28;20057;-68
2022/09/05 02:20:20;;;;;;;11.25;5.75;;;;;;;14.76;100.00;100700.91;20822264;28;20065;-68
2022/09/05 02:30:24;;;;;;;9.43;5.50;;;;;;;14.78;100.00;100701.72;20820827;28;20103;-68
2022/09/05 02:40:25;;;;;;;13.13;5.72;;;;;;;14.76;100.00;100693.88;20819703;28;20220;-68
2022/09/05 02:50:47;;;;;;;8.98;5.30;;;;;;;14.71;100.00;100689.59;20820942;28;20111;-68
2022/09/05 03:01:08;;;;;;;7.90;5.00;;;;;;;14.79;100.00;100700.81;20818974;28;20038;-68
2022/09/05 03:11:10;;;;;;;9.88;5.75;;;;;;;14.85;100.00;100683.06;20818247;28;20621;-68
2022/09/05 03:21:14;;;;;;;9.57;5.68;;;;;;;14.96;100.00;100695.94;20817466;28;20120;-68
2022/09/05 03:31:15;;;;;;;8.93;5.15;;;;;;;14.86;100.00;100683.94;20816791;28;20099;-68
2022/09/05 03:41:23;;;;;;;7.45;4.90;;;;;;;14.89;100.00;100689.94;20816933;28;20136;-68
2022/09/05 03:51:40;;;;;;;9.48;4.93;;;;;;;14.69;100.00;100680.91;20817151;28;20447;-68
2022/09/05 04:02:03;;;;;;;7.75;5.53;;;;;;;14.70;100.00;100683.47;20816417;28;20084;-68
2022/09/05 04:12:24;;;;;;;7.68;5.38;;;;;;;14.73;100.00;100693.09;20816707;28;20095;-68
2022/09/05 04:22:26;;;;;;;7.82;4.93;;;;;;;14.66;100.00;100696.78;20815921;28;20049;-68
2022/09/05 04:32:27;;;;;;;8.20;5.15;;;;;;;14.51;100.00;100704.19;20813789;28;20049;-68
2022/09/05 04:42:29;;;;;;;10.27;5.10;;;;;;;14.52;100.00;100698.06;20829461;28;20091;-68
2022/09/05 04:52:30;;;;;;;8.82;5.13;;;;;;;14.54;100.00;100703.25;20829114;28;20049;-68
2022/09/05 05:02:32;;;;;;;11.77;5.68;;;;;;;14.49;100.00;100713.94;20828119;28;20049;-68
2022/09/05 05:12:53;;;;;;;11.75;6.05;;;;;;;14.95;100.00;100733.75;20828409;28;20045;-68
2022/09/05 05:23:14;;;;;;;9.32;5.35;;;;;;;15.21;100.00;100740.03;20827493;28;20045;-68
2022/09/05 05:33:16;;;;;;;10.65;5.65;;;;;;;15.42;100.00;100742.03;20825412;28;20045;-68
2022/09/05 05:43:17;;;;;;;7.90;4.97;;;;;;;15.77;100.00;100764.75;20827077;28;20071;-68
2022/09/05 05:53:19;;;;;;;8.10;4.22;;;;;;;15.93;100.00;100782.75;20824064;28;20053;-68
2022/09/05 06:03:40;;;;;;;6.05;3.90;;;;;;;16.09;100.00;100792.75;20824016;28;20494;-68
2022/09/05 06:13:41;;;;;;;8.60;4.28;;;;;;;16.21;100.00;100773.03;20822992;28;20061;-68
2022/09/05 06:24:03;;;;;;;8.80;4.38;;;;;;;16.31;100.00;100797.38;20822096;28;20053;-68
2022/09/05 06:34:04;;;;;;;6.40;4.35;;;;;;;16.38;100.00;100794.47;20821167;28;20046;-68
2022/09/05 06:44:07;;;;;;;9.13;4.40;;;;;;;16.32;100.00;100805.22;20821535;28;20053;-68
2022/09/05 06:54:09;;;;;;;8.88;4.68;;;;;;;16.49;100.00;100796.75;20819947;28;20053;-68
2022/09/05 07:04:11;;;;;;;10.48;4.78;;;;;;;16.70;100.00;100794.28;20818868;28;20424;-68
2022/09/05 07:14:32;;;;;;;9.55;4.22;;;;;;;16.83;100.00;100806.19;20818585;28;20497;-67
2022/09/05 07:24:33;;;;;;;7.07;4.40;;;;;;;16.97;100.00;100813.66;20818612;28;20053;-68
2022/09/05 07:34:55;;;;;;;6.85;4.53;;;;;;;17.01;100.00;100818.78;20816812;28;20053;-68
2022/09/05 07:44:56;;;;;;;10.07;4.45;;;;;;;17.24;100.00;100830.31;20816891;28;20061;-68
2022/09/05 07:55:00;;;;;;;8.55;3.50;;;;;;;17.49;100.00;100825.00;20817359;28;20061;-68
2022/09/05 08:05:22;;;;;;;7.27;3.70;;;;;;;17.97;100.00;100819.63;20817390;28;20096;-68
2022/09/05 08:15:35;;;;;;;10.05;4.03;;;;;;;18.26;100.00;100821.09;20828649;28;20053;-68
2022/09/05 08:25:57;;;;;;;7.70;3.55;;;;;;;18.63;100.00;100820.41;20831592;28;20057;-68
2022/09/05 08:35:58;;;;;;;8.27;3.80;;;;;;;19.03;100.00;100816.06;20830603;28;20099;-68
2022/09/05 08:46:01;;;;;;;6.05;3.95;;;;;;;19.36;100.00;100815.50;20829751;28;20132;-68
2022/09/05 08:56:22;;;;;;;5.70;3.22;;;;;;;19.76;100.00;100824.31;20829844;28;20564;-68
2022/09/05 09:06:24;;;;;;;5.82;3.63;;;;;;;20.12;100.00;100822.56;20827936;28;20056;-68
2022/09/05 09:16:29;;;;;;;5.87;3.87;;;;;;;20.51;100.00;100816.25;20827347;28;20063;-69
2022/09/05 09:26:31;;;;;;;8.43;4.35;;;;;;;21.03;100.00;100813.53;20825061;28;20445;-69
2022/09/05 09:36:32;;;;;;;7.70;2.97;;;;;;;21.42;100.00;100791.94;20825490;28;20060;-69
2022/09/05 09:46:33;;;;;;;5.85;3.30;;;;;;;21.94;100.00;100788.16;20825142;28;20512;-69
2022/09/05 09:56:39;;;;;;;5.93;2.90;;;;;;;22.17;96.20;100761.06;20823574;28;20064;-69
2022/09/05 10:06:42;;;;;;;5.47;2.40;;;;;;;22.70;96.36;100761.50;20823160;28;20059;-69
2022/09/05 10:17:03;;;;;;;6.00;2.85;;;;;;;23.00;93.62;100758.81;20824401;28;20568;-69
2022/09/05 10:27:07;;;;;;;4.70;2.40;;;;;;;23.27;90.07;100741.06;20822898;28;20064;-69
2022/09/05 10:37:08;;;;;;;4.88;2.50;;;;;;;23.47;85.36;100734.44;20820936;28;20053;-69
2022/09/05 10:47:10;;;;;;;5.47;2.72;;;;;;;23.67;86.21;100727.00;20821390;28;20140;-69
2022/09/05 10:57:11;;;;;;;8.57;3.40;;;;;;;23.94;83.33;100710.94;20834897;23;20099;-78
2022/09/05 11:07:12;;;;;;;5.05;2.67;;;;;;;24.23;81.96;100699.13;20822852;28;20281;-78
2022/09/05 11:17:14;;;;;;;4.63;2.85;;;;;;;24.53;79.37;100684.66;20822713;28;20056;-77
2022/09/05 11:27:15;;;;;;;5.20;2.80;;;;;;;24.92;76.39;100690.84;20821577;28;20053;-77
2022/09/05 11:37:26;;;;;;;6.03;2.40;;;;;;;25.11;74.47;100683.25;20820083;28;20136;-77
2022/09/05 11:47:47;;;;;;;4.95;2.45;;;;;;;25.17;57.91;100671.22;20830450;28;20139;-79
2022/09/05 11:57:49;;;;;;;6.22;2.80;;;;;;;25.43;57.62;100666.63;20840191;28;20050;-77
2022/09/05 12:07:50;;;;;;;4.88;2.65;;;;;;;25.50;56.18;100644.63;20840890;28;20061;-77
2022/09/05 12:17:52;;;;;;;5.40;2.67;;;;;;;25.58;54.89;100633.31;20835133;28;20049;-80
2022/09/05 12:27:54;;;;;;;4.20;2.55;;;;;;;25.70;55.24;100615.47;20834341;28;20048;-78
2022/09/05 12:38:15;;;;;;;4.60;2.47;;;;;;;25.98;53.13;100608.88;20832125;28;20057;-76
2022/09/05 12:48:37;;;;;;;4.10;2.50;;;;;;;26.24;51.16;100602.34;20833160;28;20103;-77
2022/09/05 12:58:40;;;;;;;5.07;2.40;;;;;;;26.62;47.13;100595.81;20831800;28;20057;-78
2022/09/05 13:09:01;;;;;;;3.55;2.00;;;;;;;26.56;48.31;100580.19;20829764;28;20045;-78
2022/09/05 13:19:06;;;;;;;4.70;2.42;;;;;;;26.30;48.81;100574.16;20830121;28;20057;-75
2022/09/05 13:29:10;;;;;;;4.07;2.03;;;;;;;26.45;46.48;100562.25;20829187;28;20103;-78
2022/09/05 13:39:11;;;;;;;5.30;1.88;;;;;;;26.65;45.98;100563.34;20827943;28;20053;-78
2022/09/05 13:49:13;;;;;;;3.97;2.10;;;;;;;26.53;45.23;100553.56;20829603;28;20132;-75
2022/09/05 13:59:33;;;;;;;5.07;1.90;;;;;;;26.69;42.75;100532.59;20833235;28;20426;-77
2022/09/05 14:09:35;;;;;;;3.80;2.30;;;;;;;26.72;42.81;100515.34;20826138;28;20067;-80
2022/09/05 14:29:58;;;;;;;3.97;2.05;;;;;;;26.78;43.99;100510.34;20829548;28;20046;-77
2022/09/05 14:40:20;;;;;;;7.70;1.90;;;;;;;27.01;40.85;100491.44;20827277;28;20108;-78
2022/09/05 14:50:30;;;;;;;4.10;1.60;;;;;;;27.08;41.57;100492.69;20823222;28;20073;-77
2022/09/05 15:00:33;;;;;;;4.07;1.90;;;;;;;27.01;42.09;100491.44;20822154;28;20037;-77
2022/09/05 15:10:57;;;;;;;4.28;1.83;;;;;;;27.03;40.58;100476.06;20823802;28;20565;-77
2022/09/05 15:21:18;;;;;;;3.70;1.80;;;;;;;26.89;41.39;100474.53;20820821;28;20061;-77
2022/09/05 15:31:34;;;;;;;2.92;1.70;;;;;;;26.91;40.88;100451.06;20820984;28;20080;-77
2022/09/05 15:41:35;;;;;;;3.65;2.30;;;;;;;26.70;42.28;100448.31;20820800;28;20060;-79
2022/09/05 15:51:43;;;;;;;4.97;1.80;;;;;;;26.94;39.66;100433.84;20819774;28;20156;-80
2022/09/05 16:01:45;;;;;;;3.08;1.50;;;;;;;27.01;38.59;100419.75;20817329;28;20073;-78
2022/09/05 16:12:00;;;;;;;4.63;1.98;;;;;;;26.72;40.06;100418.63;20849902;28;20048;-81
2022/09/05 16:22:20;;;;;;;5.30;2.90;;;;;;;26.27;42.18;100419.56;20859365;28;20049;-78
2022/09/05 16:32:42;;;;;;;4.95;2.70;;;;;;;26.17;43.25;100405.19;20817282;28;20049;-78
2022/09/05 16:42:51;;;;;;;3.92;1.70;;;;;;;26.47;45.56;100415.28;20888968;28;20102;-80
2022/09/05 16:52:53;;;;;;;3.25;1.73;;;;;;;26.72;44.32;100389.09;20909277;28;20140;-77
2022/09/05 17:02:56;;;;;;;5.87;2.07;;;;;;;26.99;43.39;100394.00;20889248;23;20054;-70
2022/09/05 17:12:58;;;;;;;3.72;1.92;;;;;;;26.90;44.30;100400.13;20850556;28;20057;-69
2022/09/05 17:22:59;;;;;;;8.13;2.00;;;;;;;26.40;44.28;100391.72;20902564;28;20481;-69
2022/09/05 17:33:20;;;;;;;3.67;1.67;;;;;;;25.75;49.09;100383.50;20901871;28;20056;-69
2022/09/05 17:43:22;;;;;;;4.60;2.10;;;;;;;25.02;55.48;100376.63;20900349;28;20056;-69
2022/09/05 17:53:32;;;;;;;5.53;2.30;;;;;;;24.25;57.92;100377.94;20900408;28;20175;-69
2022/09/05 18:03:33;;;;;;;6.05;2.72;;;;;;;23.79;60.47;100390.13;20898649;28;20060;-69
2022/09/05 18:13:34;;;;;;;5.85;2.80;;;;;;;23.27;62.60;100388.38;20865147;28;20395;-69
2022/09/05 18:23:39;;;;;;;6.00;2.70;;;;;;;22.77;64.93;100403.31;20815458;28;20061;-69
2022/09/05 18:33:51;;;;;;;6.68;2.47;;;;;;;22.33;68.70;100408.91;20814005;28;20132;-70
2022/09/05 18:43:56;;;;;;;6.38;2.40;;;;;;;21.99;71.52;100424.34;20814271;28;20083;-69
2022/09/05 18:54:18;;;;;;;7.22;3.00;;;;;;;21.75;72.76;100420.53;20813707;28;20431;-69
2022/09/05 19:04:20;;;;;;;5.03;3.10;;;;;;;21.59;74.78;100415.28;20811307;28;20084;-69
2022/09/05 19:14:40;;;;;;;6.13;2.67;;;;;;;21.24;73.41;100412.06;20855039;28;20497;-69
2022/09/05 19:24:43;;;;;;;8.50;2.97;;;;;;;21.09;72.17;100410.34;20892954;28;20048;-69
2022/09/05 19:34:46;;;;;;;6.95;3.47;;;;;;;20.68;75.58;100405.59;20892064;28;20061;-68
2022/09/05 19:45:07;;;;;;;4.65;2.60;;;;;;;20.58;76.91;100415.06;20893410;28;20045;-68
2022/09/05 19:55:28;;;;;;;8.57;2.88;;;;;;;20.39;78.38;100393.94;20892942;28;20049;-69
2022/09/05 20:05:30;;;;;;;6.47;2.90;;;;;;;20.13;79.56;100390.94;20894062;28;20052;-69
2022/09/05 20:15:31;;;;;;;7.97;3.20;;;;;;;20.08;80.07;100374.41;20856800;28;20059;-68
2022/09/05 20:25:36;;;;;;;6.07;3.40;;;;;;;19.69;85.66;100386.25;20824472;28;20108;-68
2022/09/05 20:35:38;;;;;;;5.10;3.00;;;;;;;19.63;88.97;100389.22;20822824;28;20399;-69
2022/09/05 20:46:01;;;;;;;8.32;3.85;;;;;;;19.46;96.38;100394.56;20824021;28;20053;-68
2022/09/05 20:56:22;;;;;;;7.07;3.53;;;;;;;19.22;100.00;100400.19;20822356;28;20564;-68
2022/09/05 21:06:24;;;;;;;6.50;3.83;;;;;;;18.95;100.00;100401.59;20820668;28;20045;-68
2022/09/05 21:16:25;;;;;;;9.50;3.67;;;;;;;18.67;100.00;100408.22;20878198;28;20040;-69
2022/09/05 21:26:28;;;;;;;9.00;3.83;;;;;;;18.73;100.00;100396.50;20901954;28;20136;-69
2022/09/05 21:36:29;;;;;;;8.75;4.18;;;;;;;18.58;100.00;100394.56;20900474;28;20053;-68
2022/09/05 21:46:32;;;;;;;7.00;4.03;;;;;;;18.51;100.00;100395.81;20900196;28;20056;-71
2022/09/05 21:56:54;;;;;;;9.05;4.25;;;;;;;18.34;100.00;100399.25;20900082;28;20049;-68
2022/09/05 22:07:16;;;;;;;7.22;4.05;;;;;;;18.26;100.00;100389.03;20839670;28;20041;-69
2022/09/05 22:17:33;;;;;;;7.43;3.97;;;;;;;18.29;100.00;100385.38;20822998;28;20049;-69
2022/09/05 22:27:34;;;;;;;9.70;4.15;;;;;;;18.17;100.00;100382.38;20821917;28;20053;-69
2022/09/05 22:37:38;;;;;;;10.35;4.68;;;;;;;17.97;100.00;100377.16;20820669;28;20057;-69
2022/09/05 22:47:39;;;;;;;9.63;4.68;;;;;;;17.76;100.00;100363.09;20820969;28;20075;-69
2022/09/05 22:57:40;;;;;;;6.55;4.20;;;;;;;17.70;100.00;100355.44;20819989;28;20060;-69
2022/09/05 23:07:42;;;;;;;9.05;4.38;;;;;;;17.66;100.00;100348.53;20819138;28;20055;-68
2022/09/05 23:17:43;;;;;;;7.63;4.70;;;;;;;17.46;100.00;100351.25;20819256;28;20414;-68
2022/09/05 23:27:44;;;;;;;7.57;4.55;;;;;;;17.66;100.00;100349.41;20818436;28;20111;-68
2022/09/05 23:37:46;;;;;;;8.43;4.47;;;;;;;17.59;100.00;100347.97;20817145;28;20056;-68
2022/09/05 23:47:47;;;;;;;11.20;4.70;;;;;;;17.44;100.00;100340.72;20816692;28;20045;-68
2022/09/05 23:57:48;;;;;;;7.88;4.45;;;;;;;17.40;100.00;100328.56;20815815;28;20056;-68
